Time;durP1;ratioP1;P1;durP2;ratioP2;P2;SDS_P1;SDS_P2;PMS_P1;PMS_P2;Temp;Humidity;BMP_temperature;BMP_pressure;BME280_temperature;BME280_humidity;BME280_pressure;Samples;Min_cycle;Max_cycle;Signal;HPM_P1;HPM_P2
2021/03/27 00:00:25;;;;;;;34.60;22.05;;;10.80;65.00;;;;;;5032738;28;20026;-69
2021/03/27 00:03:26;;;;;;;29.73;21.17;;;10.80;65.30;;;;;;5032955;28;20029;-68
2021/03/27 00:05:57;;;;;;;25.92;19.30;;;10.70;65.60;;;;;;5013470;28;20057;-69
2021/03/27 00:08:47;;;;;;;27.63;20.15;;;10.70;65.40;;;;;;5032812;28;20041;-70
2021/03/27 00:11:41;;;;;;;28.48;19.38;;;10.80;65.20;;;;;;5032639;28;20065;-69
2021/03/27 00:14:31;;;;;;;22.42;16.25;;;10.70;65.00;;;;;;5024578;28;20037;-73
2021/03/27 00:17:09;;;;;;;22.80;15.93;;;10.70;65.30;;;;;;5024533;28;20141;-69
2021/03/27 00:19:53;;;;;;;19.17;15.18;;;10.70;64.90;;;;;;5032829;28;20092;-73
2021/03/27 00:22:49;;;;;;;24.80;16.42;;;10.80;64.60;;;;;;5032770;28;20032;-74
2021/03/27 00:25:48;;;;;;;26.63;17.98;;;10.80;64.10;;;;;;5031190;28;20037;-69
2021/03/27 00:28:38;;;;;;;27.05;19.13;;;10.80;64.10;;;;;;5029734;28;20030;-72
2021/03/27 00:31:19;;;;;;;28.73;18.63;;;10.70;64.10;;;;;;5032723;28;20135;-69
2021/03/27 00:33:54;;;;;;;22.98;16.67;;;10.70;64.10;;;;;;5032867;28;20026;-74
2021/03/27 00:36:37;;;;;;;29.15;18.35;;;10.60;64.30;;;;;;5032746;28;20490;-68
2021/03/27 00:39:15;;;;;;;23.25;16.88;;;10.60;64.90;;;;;;5032938;28;20071;-68
2021/03/27 00:42:03;;;;;;;25.30;17.63;;;10.60;65.50;;;;;;5032927;28;20379;-69
2021/03/27 00:44:37;;;;;;;26.67;17.00;;;10.50;65.10;;;;;;5032785;28;20470;-69
2021/03/27 00:47:05;;;;;;;24.63;16.40;;;10.50;65.30;;;;;;5032579;28;20505;-73
2021/03/27 00:49:38;;;;;;;23.37;15.73;;;10.50;65.30;;;;;;5024178;28;20045;-68
2021/03/27 00:52:11;;;;;;;27.10;18.43;;;10.40;65.80;;;;;;5032977;28;20386;-69
2021/03/27 00:54:36;;;;;;;23.25;17.08;;;10.40;65.80;;;;;;5032531;28;20052;-69
2021/03/27 00:57:25;;;;;;;23.27;16.98;;;10.40;65.80;;;;;;5032434;28;20382;-68
2021/03/27 01:00:12;;;;;;;24.75;17.60;;;10.30;66.00;;;;;;5032516;28;20123;-69
2021/03/27 01:02:54;;;;;;;24.38;16.25;;;10.30;66.40;;;;;;5032378;28;20025;-69
2021/03/27 01:05:23;;;;;;;26.25;16.83;;;10.30;66.30;;;;;;5032317;28;20026;-69
2021/03/27 01:07:50;;;;;;;23.38;16.23;;;10.30;66.20;;;;;;5032366;28;20022;-73
2021/03/27 01:10:16;;;;;;;28.63;17.35;;;10.40;66.40;;;;;;5032393;28;20044;-72
2021/03/27 01:12:43;;;;;;;24.38;16.67;;;10.30;66.60;;;;;;5034189;28;20026;-69
2021/03/27 01:15:15;;;;;;;25.55;16.17;;;10.40;66.30;;;;;;5035706;28;20049;-73
2021/03/27 01:17:46;;;;;;;23.33;16.58;;;10.40;66.80;;;;;;5035805;28;20075;-68
2021/03/27 01:20:26;;;;;;;28.00;16.67;;;10.40;66.20;;;;;;5035884;28;20029;-68
2021/03/27 01:22:53;;;;;;;20.75;16.02;;;10.30;65.90;;;;;;5036099;28;20017;-69
2021/03/27 01:25:22;;;;;;;23.38;16.17;;;10.30;66.00;;;;;;5035992;28;20029;-68
2021/03/27 01:27:51;;;;;;;22.40;17.73;;;10.20;66.00;;;;;;5035944;28;20083;-68
2021/03/27 01:30:38;;;;;;;29.70;19.27;;;10.20;66.20;;;;;;5017949;28;20041;-69
2021/03/27 01:33:21;;;;;;;26.43;17.87;;;10.10;66.30;;;;;;5035908;28;20021;-72
2021/03/27 01:36:09;;;;;;;24.75;17.52;;;10.10;66.40;;;;;;5027806;28;20034;-70
2021/03/27 01:38:36;;;;;;;26.83;16.83;;;10.10;66.70;;;;;;5035466;28;20026;-69
2021/03/27 01:41:29;;;;;;;22.67;15.47;;;10.10;67.00;;;;;;5017553;28;20033;-69
2021/03/27 01:44:14;;;;;;;26.17;17.63;;;10.10;66.90;;;;;;5035599;28;20021;-69
2021/03/27 01:46:52;;;;;;;22.47;13.97;;;10.00;66.70;;;;;;5035413;28;20029;-68
2021/03/27 01:49:27;;;;;;;19.48;13.70;;;10.00;66.50;;;;;;5035326;28;20103;-73
2021/03/27 01:52:08;;;;;;;18.63;12.48;;;10.00;66.20;;;;;;5035591;28;20044;-73
2021/03/27 01:54:41;;;;;;;19.90;13.45;;;10.00;66.30;;;;;;5035432;28;20064;-69
2021/03/27 01:57:11;;;;;;;19.08;13.07;;;10.00;66.70;;;;;;5035538;28;20052;-68
2021/03/27 01:59:44;;;;;;;20.85;12.27;;;9.90;66.50;;;;;;5032015;28;20075;-69
2021/03/27 02:02:23;;;;;;;16.67;12.27;;;9.90;66.20;;;;;;5032747;28;20075;-69
2021/03/27 02:05:01;;;;;;;20.67;12.47;;;9.90;66.60;;;;;;5033745;28;20084;-68
2021/03/27 02:08:02;;;;;;;16.43;11.10;;;9.90;66.40;;;;;;5035000;28;20642;-68
2021/03/27 02:11:11;;;;;;;15.80;11.90;;;9.80;66.50;;;;;;5003956;28;20493;-69
2021/03/27 02:14:03;;;;;;;23.37;12.00;;;9.90;66.70;;;;;;4954524;29;20166;-69
2021/03/27 02:16:54;;;;;;;20.73;12.60;;;9.90;66.50;;;;;;4954667;29;20083;-69
2021/03/27 02:19:41;;;;;;;19.20;12.73;;;9.90;66.20;;;;;;5022652;28;20029;-70
2021/03/27 02:22:31;;;;;;;17.33;12.00;;;9.90;66.00;;;;;;5034556;28;20057;-70
2021/03/27 02:25:24;;;;;;;18.37;11.87;;;9.90;65.90;;;;;;5033841;28;20486;-74
2021/03/27 02:28:01;;;;;;;22.77;15.27;;;9.80;65.60;;;;;;5034614;28;20041;-70
2021/03/27 02:30:34;;;;;;;24.40;16.90;;;9.90;65.70;;;;;;5034501;28;20072;-74
2021/03/27 02:33:14;;;;;;;23.70;17.60;;;9.80;65.60;;;;;;5034788;28;20053;-73
2021/03/27 02:36:06;;;;;;;26.77;18.20;;;9.80;65.60;;;;;;5016311;28;20562;-69
2021/03/27 02:38:53;;;;;;;25.97;18.80;;;9.70;65.60;;;;;;4998769;28;20045;-74
2021/03/27 02:41:40;;;;;;;28.40;17.67;;;9.70;65.70;;;;;;5034309;28;20386;-69
2021/03/27 02:44:27;;;;;;;29.83;18.37;;;9.60;65.90;;;;;;5034329;28;20017;-74
2021/03/27 02:47:16;;;;;;;28.80;17.87;;;9.60;65.80;;;;;;5034306;28;20021;-73
2021/03/27 02:49:57;;;;;;;26.27;17.20;;;9.50;65.70;;;;;;5002940;28;20111;-69
2021/03/27 02:52:32;;;;;;;25.47;17.70;;;9.50;66.00;;;;;;5033727;28;20029;-70
2021/03/27 02:55:09;;;;;;;30.97;18.53;;;9.40;66.00;;;;;;5034142;28;20032;-69
2021/03/27 02:57:53;;;;;;;34.13;18.10;;;9.40;66.00;;;;;;5033900;28;20083;-70
2021/03/27 03:00:41;;;;;;;28.87;18.27;;;9.40;66.20;;;;;;5034103;28;20017;-69
2021/03/27 03:03:35;;;;;;;24.90;16.67;;;9.40;66.00;;;;;;5034097;28;20057;-70
2021/03/27 03:06:20;;;;;;;30.23;17.33;;;9.30;66.10;;;;;;5033797;28;20029;-73
2021/03/27 03:09:13;;;;;;;28.07;17.33;;;9.30;66.50;;;;;;5033676;28;20032;-70
2021/03/27 03:12:00;;;;;;;28.93;19.17;;;9.30;66.80;;;;;;5034026;28;20029;-69
2021/03/27 03:14:39;;;;;;;27.70;17.60;;;9.20;66.90;;;;;;5033860;28;20359;-69
2021/03/27 03:17:16;;;;;;;28.07;17.77;;;9.20;67.20;;;;;;5033772;28;20052;-69
2021/03/27 03:20:15;;;;;;;33.10;19.37;;;9.10;67.30;;;;;;5033929;28;20068;-74
2021/03/27 03:22:57;;;;;;;25.33;18.00;;;9.10;67.40;;;;;;5033119;28;20069;-69
2021/03/27 03:25:28;;;;;;;26.70;18.25;;;9.10;67.70;;;;;;5033993;28;20369;-69
2021/03/27 03:28:27;;;;;;;26.57;18.63;;;9.10;67.50;;;;;;5033756;28;20049;-69
2021/03/27 03:31:15;;;;;;;33.57;20.20;;;9.10;67.70;;;;;;5033519;28;20037;-69
2021/03/27 03:34:05;;;;;;;27.07;18.80;;;9.10;67.60;;;;;;5033526;28;20032;-70
2021/03/27 03:36:46;;;;;;;30.43;19.07;;;9.10;67.60;;;;;;5033133;28;20036;-69
2021/03/27 03:39:17;;;;;;;28.23;18.60;;;9.10;67.20;;;;;;5033569;28;20022;-73
2021/03/27 03:41:58;;;;;;;26.27;18.73;;;9.20;67.20;;;;;;5033428;28;20025;-73
2021/03/27 03:44:23;;;;;;;30.37;19.40;;;9.10;67.10;;;;;;5033560;28;20048;-69
2021/03/27 03:46:55;;;;;;;28.20;18.27;;;9.10;67.00;;;;;;5033318;28;20474;-70
2021/03/27 03:49:31;;;;;;;26.33;19.73;;;9.10;67.50;;;;;;5033017;28;20049;-73
2021/03/27 03:51:57;;;;;;;30.63;19.43;;;9.10;67.40;;;;;;5032983;28;20048;-69
2021/03/27 03:54:37;;;;;;;26.73;19.23;;;9.10;67.20;;;;;;5033267;28;20033;-74
2021/03/27 03:57:27;;;;;;;30.97;21.07;;;9.10;67.10;;;;;;5033209;28;20383;-69
2021/03/27 04:00:02;;;;;;;42.07;21.83;;;9.10;67.20;;;;;;5015270;28;20030;-69
2021/03/27 04:02:33;;;;;;;32.53;20.97;;;9.00;67.30;;;;;;5033113;28;20370;-69
2021/03/27 04:05:13;;;;;;;25.77;18.53;;;9.00;66.90;;;;;;5033001;28;20026;-69
2021/03/27 04:08:22;;;;;;;27.63;19.23;;;9.00;67.10;;;;;;5032854;28;20469;-69
2021/03/27 04:10:55;;;;;;;34.23;19.90;;;8.90;67.50;;;;;;5025352;28;20038;-69
2021/03/27 04:13:39;;;;;;;33.70;20.10;;;8.90;68.10;;;;;;5032829;28;20041;-69
2021/03/27 04:16:12;;;;;;;34.20;18.93;;;8.90;68.20;;;;;;5032481;28;20083;-69
2021/03/27 04:19:05;;;;;;;27.83;19.60;;;8.80;68.20;;;;;;5032773;28;20049;-69
2021/03/27 04:21:50;;;;;;;37.08;18.92;;;8.90;68.10;;;;;;5032862;28;20033;-73
2021/03/27 04:24:33;;;;;;;29.60;20.37;;;8.90;67.80;;;;;;5033068;28;20048;-69
2021/03/27 04:27:05;;;;;;;33.17;20.23;;;8.80;67.60;;;;;;5032852;28;20474;-70
2021/03/27 04:29:31;;;;;;;29.50;19.15;;;8.80;67.80;;;;;;5032366;28;20390;-69
2021/03/27 04:32:24;;;;;;;30.60;19.90;;;8.70;68.20;;;;;;5032621;28;20030;-69
2021/03/27 04:35:05;;;;;;;30.40;18.90;;;8.70;68.60;;;;;;5032145;28;20026;-69
2021/03/27 04:37:47;;;;;;;29.83;19.77;;;8.70;68.10;;;;;;5032684;28;20435;-73
2021/03/27 04:40:20;;;;;;;33.90;19.60;;;8.60;68.40;;;;;;5032621;28;20116;-69
2021/03/27 04:43:04;;;;;;;25.87;19.70;;;8.60;68.50;;;;;;5032512;28;20025;-70
2021/03/27 04:45:46;;;;;;;30.93;19.50;;;8.60;68.40;;;;;;5032678;28;20025;-72
2021/03/27 04:48:12;;;;;;;27.47;18.43;;;8.60;68.60;;;;;;5035193;28;20025;-70
2021/03/27 04:50:50;;;;;;;27.50;17.70;;;8.60;68.40;;;;;;5036142;28;20064;-69
2021/03/27 04:53:41;;;;;;;31.27;18.87;;;8.60;68.80;;;;;;5036152;28;20039;-69
2021/03/27 04:56:21;;;;;;;35.43;19.07;;;8.60;69.30;;;;;;5036526;28;20032;-71
2021/03/27 04:58:56;;;;;;;34.23;18.43;;;8.60;68.90;;;;;;5036345;28;20021;-69
2021/03/27 05:02:04;;;;;;;28.27;18.00;;;8.60;68.70;;;;;;5036410;28;20105;-69
2021/03/27 05:04:55;;;;;;;28.27;17.23;;;8.60;68.70;;;;;;4975085;28;20481;-73
2021/03/27 05:07:33;;;;;;;30.00;18.43;;;8.60;69.00;;;;;;4975368;28;20395;-69
2021/03/27 05:10:13;;;;;;;29.43;18.90;;;8.60;69.10;;;;;;5019633;28;20042;-72
2021/03/27 05:12:42;;;;;;;30.90;18.57;;;8.60;69.10;;;;;;5035724;28;20144;-70
2021/03/27 05:15:25;;;;;;;38.77;20.00;;;8.60;69.40;;;;;;5035812;28;20060;-74
2021/03/27 05:18:13;;;;;;;47.20;20.90;;;8.60;69.30;;;;;;5035862;28;20075;-69
2021/03/27 05:20:41;;;;;;;43.70;19.80;;;8.60;69.60;;;;;;5035594;28;20022;-70
2021/03/27 05:23:13;;;;;;;37.73;20.63;;;8.60;69.80;;;;;;5036055;28;20036;-70
2021/03/27 05:25:44;;;;;;;48.13;20.20;;;8.60;70.20;;;;;;5035732;28;20064;-69
2021/03/27 05:28:10;;;;;;;39.93;20.30;;;8.60;70.20;;;;;;5036054;28;20037;-74
2021/03/27 05:31:06;;;;;;;29.50;20.10;;;8.60;70.50;;;;;;5035601;28;20033;-74
2021/03/27 05:33:45;;;;;;;32.30;19.67;;;8.60;70.20;;;;;;5036047;28;20083;-69
2021/03/27 05:36:23;;;;;;;29.67;20.50;;;8.60;70.10;;;;;;5035587;28;20025;-71
2021/03/27 05:39:03;;;;;;;29.03;19.53;;;8.60;70.20;;;;;;5035710;28;20536;-70
2021/03/27 05:41:44;;;;;;;24.43;17.67;;;8.60;70.60;;;;;;5017724;28;20039;-70
2021/03/27 05:44:54;;;;;;;25.47;17.60;;;8.70;70.90;;;;;;5035445;28;20033;-72
2021/03/27 05:47:41;;;;;;;26.10;16.40;;;8.70;71.30;;;;;;4974658;28;20106;-70
2021/03/27 05:50:16;;;;;;;23.17;15.97;;;8.80;71.20;;;;;;4968916;28;20415;-73
2021/03/27 05:53:00;;;;;;;22.80;15.97;;;8.90;71.60;;;;;;4997906;28;20508;-73
2021/03/27 05:55:28;;;;;;;31.53;17.40;;;8.90;72.10;;;;;;5035619;28;20053;-70
2021/03/27 05:57:54;;;;;;;23.47;16.60;;;9.00;72.20;;;;;;5034827;28;20029;-70
2021/03/27 06:00:54;;;;;;;19.50;15.33;;;9.00;72.00;;;;;;5034718;28;20033;-70
2021/03/27 06:03:31;;;;;;;26.07;16.57;;;9.10;72.70;;;;;;5035275;28;20033;-70
2021/03/27 06:06:16;;;;;;;23.67;16.27;;;9.10;72.60;;;;;;5035288;28;20496;-70
2021/03/27 06:09:18;;;;;;;23.03;16.33;;;9.10;72.60;;;;;;5034933;28;20018;-70
2021/03/27 06:12:08;;;;;;;31.52;17.73;;;9.20;71.40;;;;;;5034604;28;20049;-73
2021/03/27 06:14:43;;;;;;;26.53;17.73;;;9.20;71.10;;;;;;5034977;28;20022;-69
2021/03/27 06:17:27;;;;;;;26.57;17.97;;;9.20;70.60;;;;;;5035111;28;20030;-69
2021/03/27 06:19:59;;;;;;;26.07;17.00;;;9.30;71.30;;;;;;5034835;28;20034;-72
2021/03/27 06:22:27;;;;;;;25.23;18.33;;;9.30;70.90;;;;;;5034923;28;20025;-73
2021/03/27 06:25:18;;;;;;;22.77;16.80;;;9.30;71.60;;;;;;5034870;28;20036;-70
2021/03/27 06:28:02;;;;;;;24.67;17.27;;;9.40;71.10;;;;;;5034749;28;20087;-74
2021/03/27 06:30:49;;;;;;;22.73;15.87;;;9.40;71.00;;;;;;5034449;28;20396;-73
2021/03/27 06:33:24;;;;;;;24.20;17.77;;;9.50;71.00;;;;;;5034668;28;20105;-73
2021/03/27 06:35:59;;;;;;;32.67;19.80;;;9.50;70.90;;;;;;5027062;28;20053;-69
2021/03/27 06:39:03;;;;;;;34.43;21.07;;;9.50;71.20;;;;;;5034664;28;20030;-70
2021/03/27 06:41:37;;;;;;;27.90;20.20;;;9.50;72.10;;;;;;4993499;28;20040;-74
2021/03/27 06:44:32;;;;;;;39.97;21.57;;;9.50;71.90;;;;;;5034415;28;20022;-69
2021/03/27 06:47:16;;;;;;;30.87;20.80;;;9.50;72.30;;;;;;5034268;28;20025;-70
2021/03/27 06:49:48;;;;;;;36.43;21.83;;;9.60;71.80;;;;;;5033904;28;20509;-69
2021/03/27 06:52:41;;;;;;;81.18;24.23;;;9.70;71.50;;;;;;5016480;28;20444;-69
2021/03/27 06:55:25;;;;;;;;;;;9.60;71.40;;;;;;5034436;28;20109;-70
2021/03/27 06:58:03;;;;;;;31.20;20.77;;;9.70;71.20;;;;;;5034108;28;19992;-70
2021/03/27 07:00:54;;;;;;;26.20;18.67;;;9.80;70.70;;;;;;5033929;28;20040;-72
2021/03/27 07:03:50;;;;;;;29.90;18.17;;;9.80;70.50;;;;;;5033713;28;20021;-69
2021/03/27 07:06:30;;;;;;;25.67;17.33;;;9.80;70.30;;;;;;5033878;28;20030;-74
2021/03/27 07:09:34;;;;;;;23.37;16.10;;;9.80;69.90;;;;;;5033872;28;20029;-73
2021/03/27 07:12:08;;;;;;;20.77;15.93;;;9.80;69.70;;;;;;4987777;28;20453;-69
2021/03/27 07:14:53;;;;;;;27.17;15.87;;;9.80;70.00;;;;;;5031677;28;20080;-69
2021/03/27 07:17:27;;;;;;;29.13;16.97;;;9.80;70.00;;;;;;5033364;28;20061;-70
2021/03/27 07:20:12;;;;;;;22.90;15.60;;;9.80;70.40;;;;;;5033827;28;20029;-70
2021/03/27 07:22:49;;;;;;;23.40;15.20;;;9.80;70.50;;;;;;5033786;28;20037;-70
2021/03/27 07:25:25;;;;;;;27.40;15.23;;;;;;;;;;5033869;28;20040;-70
2021/03/27 07:28:12;;;;;;;25.10;16.33;;;9.80;70.50;;;;;;5033673;28;20036;-73
2021/03/27 07:30:55;;;;;;;24.10;15.30;;;9.90;70.90;;;;;;5033746;28;20389;-73
2021/03/27 07:33:26;;;;;;;22.47;16.60;;;9.90;70.60;;;;;;5033774;28;20021;-73
2021/03/27 07:36:17;;;;;;;26.77;16.20;;;9.90;70.60;;;;;;5033512;28;20484;-74
2021/03/27 07:39:07;;;;;;;25.90;16.37;;;9.90;70.60;;;;;;5032938;28;20051;-73
2021/03/27 07:42:08;;;;;;;33.80;18.17;;;9.90;71.20;;;;;;5031519;28;20461;-73
2021/03/27 07:45:22;;;;;;;30.13;17.50;;;9.90;71.30;;;;;;5015393;28;20048;-73
2021/03/27 07:48:02;;;;;;;37.78;20.33;;;9.90;72.10;;;;;;4971512;28;20037;-73
2021/03/27 07:51:13;;;;;;;65.97;24.97;;;10.00;71.40;;;;;;5032811;28;20492;-73
2021/03/27 07:54:00;;;;;;;45.22;26.65;;;10.10;71.80;;;;;;5000552;28;20041;-73
2021/03/27 07:57:04;;;;;;;50.13;27.70;;;10.10;71.70;;;;;;5033223;28;20049;-73
2021/03/27 07:59:47;;;;;;;43.67;24.98;;;10.10;71.70;;;;;;5015296;28;20124;-73
2021/03/27 08:02:38;;;;;;;43.25;26.75;;;10.10;71.00;;;;;;5032966;28;20013;-73
2021/03/27 08:05:41;;;;;;;50.13;27.60;;;10.10;70.70;;;;;;5032724;28;20026;-73
2021/03/27 08:08:42;;;;;;;48.08;31.20;;;10.20;70.50;;;;;;5032959;28;20030;-73
2021/03/27 08:11:17;;;;;;;54.63;31.17;;;10.20;70.00;;;;;;5033037;28;20029;-73
2021/03/27 08:14:11;;;;;;;66.28;36.63;;;10.30;69.90;;;;;;5033137;28;20026;-73
2021/03/27 08:17:14;;;;;;;79.80;40.97;;;10.30;69.70;;;;;;5015240;28;20425;-73
2021/03/27 08:19:46;;;;;;;73.30;42.08;;;10.30;69.60;;;;;;5032933;28;20025;-73
2021/03/27 08:22:52;;;;;;;66.95;38.13;;;10.40;69.40;;;;;;5034211;28;20056;-73
2021/03/27 08:25:53;;;;;;;72.10;38.60;;;10.40;69.40;;;;;;5037018;28;20025;-73
2021/03/27 08:28:40;;;;;;;63.23;37.73;;;10.40;69.40;;;;;;4963693;28;20078;-73
2021/03/27 08:31:27;;;;;;;68.30;37.53;;;10.40;69.30;;;;;;5031509;28;20039;-73
2021/03/27 08:34:12;;;;;;;59.88;34.78;;;10.40;69.50;;;;;;5037094;28;20029;-73
2021/03/27 08:37:10;;;;;;;49.55;29.50;;;10.50;69.50;;;;;;5036745;28;20031;-73
2021/03/27 08:39:57;;;;;;;40.95;25.73;;;10.50;69.30;;;;;;5036653;28;20539;-73
2021/03/27 08:42:50;;;;;;;39.10;24.65;;;10.60;69.30;;;;;;5036529;28;20572;-73
2021/03/27 08:45:46;;;;;;;35.72;24.08;;;10.60;69.00;;;;;;5036745;28;20029;-73
2021/03/27 08:48:49;;;;;;;42.08;25.60;;;10.60;68.80;;;;;;5036902;28;20026;-73
2021/03/27 08:52:05;;;;;;;44.50;24.50;;;10.60;68.50;;;;;;5016698;28;20038;-73
2021/03/27 08:54:51;;;;;;;40.65;23.35;;;10.70;68.60;;;;;;4998959;28;20037;-73
2021/03/27 08:57:48;;;;;;;35.35;22.15;;;10.70;68.60;;;;;;5016872;28;20026;-73
2021/03/27 09:00:59;;;;;;;32.80;22.90;;;10.70;68.50;;;;;;5016475;28;20110;-73
2021/03/27 09:04:01;;;;;;;35.70;22.77;;;10.80;68.50;;;;;;5008769;28;20060;-73
2021/03/27 09:06:36;;;;;;;42.20;21.92;;;10.80;68.80;;;;;;5016413;28;20029;-73
2021/03/27 09:09:30;;;;;;;39.67;21.00;;;10.90;68.70;;;;;;5016219;28;20028;-73
2021/03/27 09:12:13;;;;;;;34.83;18.58;;;10.90;69.00;;;;;;5016129;28;20121;-73
2021/03/27 09:14:51;;;;;;;48.92;19.35;;;10.90;68.80;;;;;;5016216;28;20383;-73
2021/03/27 09:17:37;;;;;;;28.58;17.50;;;10.90;68.60;;;;;;5016154;28;20109;-73
2021/03/27 09:20:40;;;;;;;25.80;16.92;;;11.00;68.30;;;;;;4998227;28;20073;-74
2021/03/27 09:23:18;;;;;;;;;;;11.00;67.70;;;;;;5016474;28;20129;-74
2021/03/27 09:26:06;;;;;;;38.53;17.17;;;11.10;67.60;;;;;;5016114;28;19906;-72
2021/03/27 09:28:34;;;;;;;30.58;16.92;;;11.10;67.30;;;;;;5015854;28;20076;-72
2021/03/27 09:31:19;;;;;;;27.85;16.33;;;11.20;67.10;;;;;;5015940;28;20088;-72
2021/03/27 09:33:58;;;;;;;27.08;14.43;;;11.20;67.10;;;;;;5015617;28;20026;-72
2021/03/27 09:36:47;;;;;;;22.63;14.38;;;11.30;66.90;;;;;;5015995;28;20479;-72
2021/03/27 09:39:36;;;;;;;19.23;12.85;;;11.30;66.00;;;;;;5015687;28;20022;-71
2021/03/27 09:42:16;;;;;;;24.73;12.90;;;11.40;65.80;;;;;;5015658;28;20030;-71
2021/03/27 09:44:48;;;;;;;29.60;13.90;;;11.50;65.50;;;;;;5015593;28;20029;-71
2021/03/27 09:47:25;;;;;;;24.02;13.65;;;11.50;65.30;;;;;;5015661;28;20026;-72
2021/03/27 10:14:21;;;;;;;20.20;13.17;;;11.70;65.60;;;;;;5131464;27;20310;-74
2021/03/27 10:17:00;;;;;;;25.92;12.73;;;11.60;66.50;;;;;;5131368;28;20036;-74
2021/03/27 10:19:54;;;;;;;20.50;13.13;;;11.70;67.10;;;;;;5131284;28;20028;-73
2021/03/27 10:22:52;;;;;;;28.30;15.18;;;11.70;67.00;;;;;;5131486;27;20027;-74
2021/03/27 10:25:33;;;;;;;37.38;16.52;;;11.80;66.60;;;;;;5130955;27;20050;-75
2021/03/27 10:28:14;;;;;;;19.50;15.25;;;11.90;65.90;;;;;;5131440;27;20038;-73
2021/03/27 10:30:44;;;;;;;39.50;16.25;;;;;;;;;;5131225;27;20102;-74
2021/03/27 10:33:17;;;;;;;27.23;14.88;;;12.00;65.50;;;;;;5131033;28;20035;-74
2021/03/27 10:35:46;;;;;;;22.40;13.10;;;12.10;66.30;;;;;;5130869;27;20106;-75
2021/03/27 10:38:42;;;;;;;34.80;15.02;;;12.10;65.90;;;;;;5130816;27;20098;-75
2021/03/27 10:41:13;;;;;;;19.20;13.60;;;12.20;65.80;;;;;;5130915;27;20033;-74
2021/03/27 10:43:41;;;;;;;20.92;12.93;;;12.30;65.80;;;;;;5130818;27;20023;-75
2021/03/27 10:46:43;;;;;;;17.48;10.68;;;12.30;65.40;;;;;;5130874;27;20382;-73
2021/03/27 10:49:32;;;;;;;13.52;10.90;;;12.30;65.10;;;;;;5130960;27;20036;-74
2021/03/27 10:52:22;;;;;;;25.38;11.02;;;12.40;65.20;;;;;;5130766;28;20073;-75
2021/03/27 10:54:54;;;;;;;21.83;10.70;;;12.40;65.20;;;;;;5130624;28;20076;-75
2021/03/27 10:57:56;;;;;;;17.05;10.38;;;12.40;64.60;;;;;;5130768;27;20106;-77
2021/03/27 11:00:40;;;;;;;20.27;10.27;;;12.50;65.30;;;;;;5130476;27;20027;-75
2021/03/27 11:03:11;;;;;;;20.25;9.82;;;12.50;65.20;;;;;;5129348;28;20027;-75
2021/03/27 11:05:58;;;;;;;11.93;8.93;;;12.50;65.20;;;;;;5130378;27;20012;-75
2021/03/27 11:08:48;;;;;;;20.60;8.70;;;12.60;65.40;;;;;;5130404;28;20431;-76
2021/03/27 11:11:45;;;;;;;14.10;8.23;;;12.60;65.50;;;;;;5130337;27;20099;-75
2021/03/27 11:14:39;;;;;;;15.73;8.57;;;12.60;65.40;;;;;;5128795;28;20047;-74
2021/03/27 11:17:51;;;;;;;20.30;8.15;;;12.70;65.50;;;;;;5130494;27;20068;-74
2021/03/27 11:20:38;;;;;;;11.00;8.55;;;12.70;65.70;;;;;;5092392;27;20035;-74
2021/03/27 11:23:28;;;;;;;14.02;8.65;;;12.70;66.10;;;;;;5130096;27;20243;-74
2021/03/27 11:26:12;;;;;;;12.85;8.52;;;12.60;66.20;;;;;;5116170;28;20024;-74
2021/03/27 11:28:44;;;;;;;14.70;8.32;;;12.60;66.30;;;;;;5116136;28;20020;-74
2021/03/27 11:31:18;;;;;;;14.00;8.57;;;12.70;66.40;;;;;;5116554;27;20482;-74
2021/03/27 11:33:55;;;;;;;11.77;8.70;;;12.60;66.70;;;;;;5116211;28;20028;-73
2021/03/27 11:36:26;;;;;;;12.25;9.32;;;12.70;67.00;;;;;;5116421;28;20076;-74
2021/03/27 11:39:19;;;;;;;17.42;9.70;;;12.70;66.90;;;;;;5116373;28;20036;-74
2021/03/27 11:42:17;;;;;;;12.52;9.35;;;12.70;67.10;;;;;;5116265;27;20051;-74
2021/03/27 11:45:35;;;;;;;19.08;9.75;;;12.70;68.10;;;;;;5116177;28;20472;-74
2021/03/27 11:48:19;;;;;;;13.55;9.50;;;12.70;68.30;;;;;;5097982;28;20039;-73
2021/03/27 11:50:54;;;;;;;13.73;9.88;;;12.70;67.80;;;;;;5116055;28;20030;-74
2021/03/27 11:53:41;;;;;;;19.05;10.13;;;12.80;68.90;;;;;;5115718;28;20039;-75
2021/03/27 11:56:37;;;;;;;13.60;10.30;;;12.80;68.70;;;;;;5115947;28;20028;-75
2021/03/27 12:02:32;;;;;;;19.02;11.32;;;12.90;68.90;;;;;;5116217;28;20089;-73
2021/03/27 12:05:06;;;;;;;22.33;12.10;;;13.00;70.30;;;;;;5115734;28;20027;-74
2021/03/27 12:07:55;;;;;;;19.88;13.23;;;13.00;70.30;;;;;;5115445;28;20379;-74
2021/03/27 12:10:39;;;;;;;18.65;13.15;;;13.00;69.40;;;;;;5115740;28;20054;-74
2021/03/27 12:13:25;;;;;;;20.05;12.55;;;13.10;69.40;;;;;;5114272;28;20051;-74
2021/03/27 12:16:04;;;;;;;21.35;13.10;;;13.10;69.90;;;;;;5115529;28;20434;-74
2021/03/27 12:18:48;;;;;;;25.85;12.65;;;13.10;69.10;;;;;;5115625;28;20024;-73
2021/03/27 12:21:24;;;;;;;18.23;10.88;;;13.10;69.30;;;;;;5115710;28;20016;-74
2021/03/27 12:24:04;;;;;;;15.73;10.40;;;13.20;69.20;;;;;;5114025;28;20024;-73
2021/03/27 12:26:41;;;;;;;20.58;9.80;;;13.20;69.10;;;;;;5115210;28;20020;-73
2021/03/27 12:29:14;;;;;;;17.77;10.88;;;13.20;69.10;;;;;;5115220;28;20437;-74
2021/03/27 12:32:17;;;;;;;28.70;13.27;;;13.30;69.40;;;;;;5114960;27;20030;-75
2021/03/27 12:34:53;;;;;;;20.67;12.07;;;13.50;69.60;;;;;;5115108;28;20035;-76
2021/03/27 12:37:38;;;;;;;18.30;12.23;;;13.60;69.80;;;;;;5113703;28;20028;-74
2021/03/27 12:40:30;;;;;;;19.73;11.32;;;13.70;69.80;;;;;;5114997;28;20020;-73
2021/03/27 12:43:07;;;;;;;19.73;11.50;;;13.80;69.20;;;;;;5115015;28;20053;-73
2021/03/27 12:45:41;;;;;;;17.50;13.15;;;13.90;69.20;;;;;;5114995;28;20487;-73
2021/03/27 12:48:25;;;;;;;24.00;12.57;;;14.00;69.10;;;;;;5114600;28;20016;-74
2021/03/27 12:51:08;;;;;;;16.60;10.73;;;14.10;68.90;;;;;;5114498;28;20088;-73
2021/03/27 12:54:06;;;;;;;25.05;11.27;;;14.10;68.60;;;;;;5114307;28;20032;-73
2021/03/27 12:57:20;;;;;;;21.98;11.57;;;14.20;68.20;;;;;;5114716;28;20425;-73
2021/03/27 13:00:01;;;;;;;19.95;12.45;;;14.20;68.10;;;;;;5082042;28;20051;-73
2021/03/27 13:02:42;;;;;;;19.55;13.57;;;14.20;67.90;;;;;;5114405;28;20444;-73
2021/03/27 13:05:35;;;;;;;27.88;15.00;;;14.20;68.10;;;;;;5113998;28;20485;-73
2021/03/27 13:08:34;;;;;;;23.13;15.15;;;14.20;68.10;;;;;;5114105;28;20374;-73
2021/03/27 13:10:59;;;;;;;24.60;15.18;;;14.10;68.10;;;;;;5114199;28;20538;-74
2021/03/27 13:13:50;;;;;;;18.10;14.07;;;14.10;67.70;;;;;;5113319;28;20134;-73
2021/03/27 13:16:41;;;;;;;23.65;14.70;;;14.10;67.50;;;;;;5119981;27;20411;-73
2021/03/27 13:19:34;;;;;;;24.35;14.65;;;14.10;67.90;;;;;;5133266;27;20023;-73
2021/03/27 13:22:18;;;;;;;25.85;15.50;;;14.00;67.90;;;;;;5133446;27;20366;-73
2021/03/27 13:25:18;;;;;;;26.27;16.85;;;14.00;68.20;;;;;;5134604;27;20034;-73
2021/03/27 13:27:49;;;;;;;26.70;19.85;;;14.00;68.50;;;;;;5133957;27;20467;-74
2021/03/27 13:30:26;;;;;;;26.02;19.15;;;14.00;68.50;;;;;;5133757;27;20398;-74
2021/03/27 13:33:07;;;;;;;36.85;26.65;;;14.00;68.50;;;;;;5133774;27;20052;-73
2021/03/27 13:35:51;;;;;;;42.25;30.00;;;14.00;69.10;;;;;;5133999;27;20023;-73
2021/03/27 13:38:37;;;;;;;40.58;29.00;;;14.00;69.40;;;;;;5134166;27;20434;-74
2021/03/27 13:41:23;;;;;;;42.50;29.98;;;14.00;69.70;;;;;;5122409;27;20050;-73
2021/03/27 13:43:57;;;;;;;39.97;29.02;;;;;;;;;;5132823;27;20027;-73
2021/03/27 13:46:29;;;;;;;39.72;27.35;;;14.10;70.40;;;;;;5132778;27;20539;-74
2021/03/27 13:48:58;;;;;;;37.33;26.55;;;14.10;71.00;;;;;;5133750;27;20030;-74
2021/03/27 13:51:42;;;;;;;33.00;23.80;;;14.10;71.10;;;;;;5134616;27;20015;-73
2021/03/27 13:54:22;;;;;;;31.38;23.88;;;14.10;70.70;;;;;;5134227;27;20559;-73
2021/03/27 13:57:29;;;;;;;31.17;24.52;;;14.10;70.50;;;;;;5134422;27;20027;-74
2021/03/27 14:00:18;;;;;;;34.45;21.55;;;14.10;71.10;;;;;;5070942;28;20102;-74
2021/03/27 14:03:24;;;;;;;30.15;21.80;;;14.10;70.40;;;;;;5070977;28;20020;-74
2021/03/27 14:06:09;;;;;;;25.45;18.75;;;14.00;70.60;;;;;;5128159;27;20050;-73
2021/03/27 14:08:46;;;;;;;30.23;20.10;;;14.00;70.70;;;;;;5133976;27;20023;-74
2021/03/27 14:11:23;;;;;;;24.80;19.50;;;13.90;70.80;;;;;;5134286;28;20091;-73
2021/03/27 14:14:11;;;;;;;33.53;18.92;;;13.90;71.30;;;;;;5132606;28;20082;-73
2021/03/27 14:17:05;;;;;;;28.45;18.02;;;13.90;71.90;;;;;;5133768;28;20041;-73
2021/03/27 14:19:36;;;;;;;23.55;17.15;;;13.90;71.70;;;;;;5134021;27;20031;-73
2021/03/27 14:22:43;;;;;;;24.65;17.77;;;13.90;71.50;;;;;;5134093;28;20374;-73
2021/03/27 14:25:38;;;;;;;25.55;15.38;;;13.90;71.50;;;;;;5083783;27;20436;-71